Time;durP1;ratioP1;P1;durP2;ratioP2;P2;SDS_P1;SDS_P2;PMS_P1;PMS_P2;Temp;Humidity;BMP_temperature;BMP_pressure;BME280_temperature;BME280_humidity;BME280_pressure;Samples;Min_cycle;Max_cycle;Signal;HPM_P1;HPM_P2
2023/04/18 00:00:48;;;;;;;4.45;1.15;;;;;;;;;;5087689;28;20040;-74
2023/04/18 00:03:20;;;;;;;7.03;1.20;;;;;;;;;;5087772;28;20044;-78
2023/04/18 00:05:52;;;;;;;4.13;1.25;;;;;;;;;;5088362;28;20620;-74
2023/04/18 00:08:27;;;;;;;7.05;1.13;;;;;;;;;;5087862;28;20075;-75
2023/04/18 00:11:00;;;;;;;3.85;0.93;;;;;;;;;;5088209;28;20056;-76
2023/04/18 00:13:34;;;;;;;4.22;1.20;;;;;;;;;;5086240;28;20495;-77
2023/04/18 00:16:07;;;;;;;3.42;1.08;;;;;;;;;;5072749;28;20044;-76
2023/04/18 00:18:38;;;;;;;4.10;0.90;;;;;;;;;;5065980;28;20060;-77
2023/04/18 00:21:09;;;;;;;7.18;1.17;;;;;;;;;;5067015;28;20048;-75
2023/04/18 00:23:42;;;;;;;8.50;1.13;;;;;;;;;;5067302;28;20053;-73
2023/04/18 00:26:13;;;;;;;6.95;1.20;;;;;;;;;;5066578;28;20048;-73
2023/04/18 00:28:48;;;;;;;5.25;0.90;;;;;;;;;;5067159;28;20517;-74
2023/04/18 00:31:18;;;;;;;5.18;1.02;;;;;;;;;;5066956;28;20048;-78
2023/04/18 00:33:51;;;;;;;8.23;1.30;;;;;;;;;;5064696;28;20511;-79
2023/04/18 00:36:26;;;;;;;3.10;0.93;;;;;;;;;;5049138;28;20052;-77
2023/04/18 00:38:57;;;;;;;6.07;1.02;;;;;;;;;;5083661;28;20052;-77
2023/04/18 00:41:29;;;;;;;9.48;1.25;;;;;;;;;;5087070;28;20048;-77
2023/04/18 00:44:00;;;;;;;6.43;1.20;;;;;;;;;;5085638;28;20052;-75
2023/04/18 00:46:35;;;;;;;2.17;1.05;;;;;;;;;;5085789;28;20044;-78
2023/04/18 00:49:07;;;;;;;4.60;0.85;;;;;;;;;;5084436;28;20510;-76
2023/04/18 00:51:38;;;;;;;1.77;1.05;;;;;;;;;;5084582;28;20048;-78
2023/04/18 00:54:11;;;;;;;7.57;0.88;;;;;;;;;;5084230;28;20133;-77
2023/04/18 00:56:42;;;;;;;1.77;1.00;;;;;;;;;;5083344;28;20052;-75
2023/04/18 00:59:16;;;;;;;2.50;0.75;;;;;;;;;;5084623;28;20055;-77
2023/04/18 01:01:46;;;;;;;4.50;1.10;;;;;;;;;;5086551;28;20415;-75
2023/04/18 01:04:18;;;;;;;4.43;1.05;;;;;;;;;;5084495;28;20063;-75
2023/04/18 01:06:50;;;;;;;11.07;1.00;;;;;;;;;;5084482;28;20518;-77
2023/04/18 01:09:30;;;;;;;5.07;1.17;;;;;;;;;;5084922;28;20040;-78
2023/04/18 01:12:00;;;;;;;2.90;1.02;;;;;;;;;;5086079;28;20067;-76
2023/04/18 01:14:32;;;;;;;6.28;1.10;;;;;;;;;;5084401;28;20515;-76
2023/04/18 01:17:06;;;;;;;5.97;1.13;;;;;;;;;;5086163;28;20521;-76
2023/04/18 01:19:43;;;;;;;5.03;1.30;;;;;;;;;;5086338;28;20047;-78
2023/04/18 01:22:14;;;;;;;4.53;1.00;;;;;;;;;;5086292;28;20511;-78
2023/04/18 01:24:46;;;;;;;6.90;1.30;;;;;;;;;;5084697;28;20055;-79
2023/04/18 01:27:17;;;;;;;6.20;1.38;;;;;;;;;;5084624;28;20518;-75
2023/04/18 01:29:49;;;;;;;8.48;1.23;;;;;;;;;;5086586;28;20043;-77
2023/04/18 01:32:19;;;;;;;1.48;1.30;;;;;;;;;;5083703;28;20051;-74
2023/04/18 01:34:50;;;;;;;1.15;1.02;;;;;;;;;;5083852;28;20078;-75
2023/04/18 01:37:21;;;;;;;3.25;1.40;;;;;;;;;;5083612;28;20515;-74
2023/04/18 01:39:52;;;;;;;2.85;1.50;;;;;;;;;;5084018;28;20052;-77
2023/04/18 01:42:23;;;;;;;5.43;1.65;;;;;;;;;;5084135;28;20514;-77
2023/04/18 01:44:53;;;;;;;4.78;1.50;;;;;;;;;;5083913;28;20059;-76
2023/04/18 01:47:24;;;;;;;2.67;1.30;;;;;;;;;;5085375;28;20048;-76
2023/04/18 01:49:55;;;;;;;2.13;1.40;;;;;;;;;;5085329;28;20059;-77
2023/04/18 01:52:26;;;;;;;4.88;1.23;;;;;;;;;;5083527;28;20438;-75
2023/04/18 01:54:57;;;;;;;10.80;1.45;;;;;;;;;;5085948;28;20047;-74
2023/04/18 01:57:29;;;;;;;1.67;1.30;;;;;;;;;;5084037;28;20502;-76
2023/04/18 02:00:00;;;;;;;5.22;1.45;;;;;;;;;;5084569;28;20048;-75
2023/04/18 02:02:41;;;;;;;3.70;1.00;;;;;;;;;;5091190;28;20067;-75
2023/04/18 02:05:12;;;;;;;2.72;0.90;;;;;;;;;;5083183;28;20056;-75
2023/04/18 02:07:44;;;;;;;2.97;1.08;;;;;;;;;;5085251;28;20055;-75
2023/04/18 02:10:15;;;;;;;2.33;1.00;;;;;;;;;;5085708;28;20056;-77
2023/04/18 02:12:45;;;;;;;2.50;0.82;;;;;;;;;;5084073;28;20057;-77
2023/04/18 02:15:16;;;;;;;8.68;1.00;;;;;;;;;;5084095;28;20423;-76
2023/04/18 02:17:47;;;;;;;3.60;0.95;;;;;;;;;;5085001;28;20048;-76
2023/04/18 02:20:19;;;;;;;7.07;1.00;;;;;;;;;;5085482;28;20044;-76
2023/04/18 02:22:49;;;;;;;1.63;1.10;;;;;;;;;;5067331;28;20068;-75
2023/04/18 02:25:22;;;;;;;4.85;1.20;;;;;;;;;;5085228;28;20052;-76
2023/04/18 02:27:53;;;;;;;6.18;1.30;;;;;;;;;;5086072;28;20040;-74
2023/04/18 02:30:24;;;;;;;6.85;1.17;;;;;;;;;;5085225;28;20407;-77
2023/04/18 02:32:58;;;;;;;11.80;1.70;;;;;;;;;;5084081;28;20688;-76
2023/04/18 02:35:30;;;;;;;3.67;1.52;;;;;;;;;;5084611;28;20506;-75
2023/04/18 02:38:01;;;;;;;5.18;2.00;;;;;;;;;;5084731;28;20051;-76
2023/04/18 02:40:32;;;;;;;2.88;1.35;;;;;;;;;;5085143;28;20052;-74
2023/04/18 02:43:02;;;;;;;3.50;1.42;;;;;;;;;;5083945;28;20047;-73
2023/04/18 02:45:32;;;;;;;3.97;1.02;;;;;;;;;;5083171;28;20514;-76
2023/04/18 02:48:02;;;;;;;1.90;1.52;;;;;;;;;;5082886;28;20051;-76
2023/04/18 02:50:34;;;;;;;2.67;1.23;;;;;;;;;;5083340;28;20079;-75
2023/04/18 02:53:07;;;;;;;4.35;1.08;;;;;;;;;;5085077;28;20499;-76
2023/04/18 02:55:56;;;;;;;5.90;1.05;;;;;;;;;;5084993;28;20052;-76
2023/04/18 02:58:37;;;;;;;4.32;1.20;;;;;;;;;;5082857;28;20059;-76
2023/04/18 03:01:25;;;;;;;2.35;1.20;;;;;;;;;;5083055;28;20052;-73
2023/04/18 03:04:07;;;;;;;8.85;1.20;;;;;;;;;;5082774;28;20059;-76
2023/04/18 03:06:44;;;;;;;4.80;1.52;;;;;;;;;;5083253;28;20055;-76
2023/04/18 03:09:16;;;;;;;3.95;1.00;;;;;;;;;;5082764;28;20511;-78
2023/04/18 03:11:51;;;;;;;2.00;0.95;;;;;;;;;;5083008;28;20056;-75
2023/04/18 03:14:26;;;;;;;23.05;1.60;;;;;;;;;;5083726;28;20052;-76
2023/04/18 03:16:56;;;;;;;7.55;1.13;;;;;;;;;;5084665;28;20052;-75
2023/04/18 03:19:35;;;;;;;4.63;0.82;;;;;;;;;;5084147;28;20074;-75
2023/04/18 03:22:10;;;;;;;3.90;0.90;;;;;;;;;;5086820;28;20384;-74
2023/04/18 03:24:51;;;;;;;8.60;1.45;;;;;;;;;;5087217;28;20063;-76
2023/04/18 03:27:27;;;;;;;9.55;1.17;;;;;;;;;;5086233;28;20073;-77
2023/04/18 03:30:00;;;;;;;5.65;0.93;;;;;;;;;;5086408;28;20052;-77
2023/04/18 03:32:33;;;;;;;3.28;0.90;;;;;;;;;;5086675;28;20055;-74
2023/04/18 03:35:04;;;;;;;5.00;1.10;;;;;;;;;;5086379;28;20048;-73
2023/04/18 03:37:36;;;;;;;4.32;1.20;;;;;;;;;;5086037;28;20063;-75
2023/04/18 03:40:10;;;;;;;4.88;1.00;;;;;;;;;;5086618;28;20052;-75
2023/04/18 03:42:42;;;;;;;5.32;1.17;;;;;;;;;;5086598;28;20671;-74
2023/04/18 03:45:13;;;;;;;6.18;1.05;;;;;;;;;;5085889;28;20048;-75
2023/04/18 03:47:46;;;;;;;2.03;1.02;;;;;;;;;;5085746;28;20818;-74
2023/04/18 03:50:17;;;;;;;4.28;1.08;;;;;;;;;;5086212;28;20055;-75
2023/04/18 03:52:51;;;;;;;4.93;0.95;;;;;;;;;;5086346;28;20044;-74
2023/04/18 03:55:21;;;;;;;1.15;0.75;;;;;;;;;;5086246;28;20052;-76
2023/04/18 03:57:51;;;;;;;3.20;1.13;;;;;;;;;;5086226;28;20063;-76
2023/04/18 04:00:28;;;;;;;5.47;1.20;;;;;;;;;;5085911;28;20939;-75
2023/04/18 04:03:08;;;;;;;1.77;1.00;;;;;;;;;;5085761;28;20044;-74
2023/04/18 04:05:40;;;;;;;3.83;1.10;;;;;;;;;;5085808;28;20498;-74
2023/04/18 04:08:10;;;;;;;3.78;1.33;;;;;;;;;;5085649;28;20040;-76
2023/04/18 04:10:41;;;;;;;6.70;0.77;;;;;;;;;;5069175;28;20063;-75
2023/04/18 04:13:13;;;;;;;2.35;0.90;;;;;;;;;;5085747;28;20063;-75
2023/04/18 04:15:43;;;;;;;4.32;0.70;;;;;;;;;;5086042;28;20044;-77
2023/04/18 04:18:15;;;;;;;10.23;0.98;;;;;;;;;;5069518;28;20083;-75
2023/04/18 04:20:47;;;;;;;2.22;0.70;;;;;;;;;;5085244;28;20048;-74
2023/04/18 04:23:33;;;;;;;10.27;1.00;;;;;;;;;;5085508;28;20059;-76
2023/04/18 04:26:03;;;;;;;5.05;0.80;;;;;;;;;;5087497;28;20048;-75
2023/04/18 04:28:45;;;;;;;2.85;0.90;;;;;;;;;;5085669;28;20055;-74
2023/04/18 04:31:21;;;;;;;1.33;0.85;;;;;;;;;;5085205;28;20449;-75
2023/04/18 04:33:52;;;;;;;7.85;1.00;;;;;;;;;;5087660;28;20048;-75
2023/04/18 04:36:26;;;;;;;2.28;0.70;;;;;;;;;;5084993;28;20451;-75
2023/04/18 04:38:58;;;;;;;6.85;0.80;;;;;;;;;;5085378;28;20446;-74
2023/04/18 04:41:42;;;;;;;8.38;1.10;;;;;;;;;;5085031;28;20048;-73
2023/04/18 04:44:16;;;;;;;1.10;0.90;;;;;;;;;;5085323;28;20052;-77
2023/04/18 04:46:46;;;;;;;0.90;0.82;;;;;;;;;;5085313;28;20048;-75
2023/04/18 04:49:21;;;;;;;4.80;1.00;;;;;;;;;;5084857;28;20059;-74
2023/04/18 04:51:52;;;;;;;11.20;1.05;;;;;;;;;;5084866;28;20048;-74
2023/04/18 04:54:23;;;;;;;6.57;0.90;;;;;;;;;;5085177;28;20078;-74
2023/04/18 04:56:53;;;;;;;2.90;0.80;;;;;;;;;;5085224;28;20056;-74
2023/04/18 04:59:23;;;;;;;7.03;0.77;;;;;;;;;;5086852;28;20051;-74
2023/04/18 05:01:57;;;;;;;4.90;0.70;;;;;;;;;;5084997;28;20052;-74
2023/04/18 05:04:28;;;;;;;1.63;0.63;;;;;;;;;;5085107;28;20399;-76
2023/04/18 05:06:59;;;;;;;2.85;0.70;;;;;;;;;;5084954;28;20056;-74
2023/04/18 05:09:29;;;;;;;3.40;0.68;;;;;;;;;;5086339;28;20055;-75
2023/04/18 05:12:00;;;;;;;2.60;1.13;;;;;;;;;;5083951;28;20059;-74
2023/04/18 05:14:31;;;;;;;2.22;1.08;;;;;;;;;;5086584;28;20380;-75
2023/04/18 05:17:02;;;;;;;5.03;1.13;;;;;;;;;;5086716;28;20048;-75
2023/04/18 05:19:32;;;;;;;1.63;1.13;;;;;;;;;;5086372;28;20395;-74
2023/04/18 05:22:03;;;;;;;1.65;1.15;;;;;;;;;;5086489;28;20052;-76
2023/04/18 05:24:34;;;;;;;4.35;0.63;;;;;;;;;;5085891;28;20055;-75
2023/04/18 05:27:08;;;;;;;4.30;0.80;;;;;;;;;;5085778;28;20102;-74
2023/04/18 05:29:38;;;;;;;2.65;0.80;;;;;;;;;;5085906;28;20040;-75
2023/04/18 05:32:09;;;;;;;1.30;0.80;;;;;;;;;;5084454;28;20122;-74
2023/04/18 05:34:41;;;;;;;2.55;0.90;;;;;;;;;;5086680;28;20474;-74
2023/04/18 05:37:11;;;;;;;4.88;0.70;;;;;;;;;;5086244;28;20048;-74
2023/04/18 05:39:41;;;;;;;3.38;1.00;;;;;;;;;;5086094;28;20525;-74
2023/04/18 05:42:11;;;;;;;3.70;0.80;;;;;;;;;;5085266;28;20040;-74
2023/04/18 05:44:42;;;;;;;6.07;0.93;;;;;;;;;;5085787;28;20047;-76
2023/04/18 05:47:11;;;;;;;5.70;0.95;;;;;;;;;;5085750;28;20405;-74
2023/04/18 05:49:43;;;;;;;3.90;0.68;;;;;;;;;;5084936;28;20067;-75
2023/04/18 05:52:13;;;;;;;5.57;0.70;;;;;;;;;;5085719;28;20051;-74
2023/04/18 05:54:45;;;;;;;5.00;0.90;;;;;;;;;;5085236;28;20040;-74
2023/04/18 05:57:16;;;;;;;1.92;0.73;;;;;;;;;;5085630;28;20048;-75
2023/04/18 05:59:45;;;;;;;0.80;0.80;;;;;;;;;;5085771;28;20044;-75
2023/04/18 06:02:16;;;;;;;0.95;0.65;;;;;;;;;;5085232;28;20043;-74
2023/04/18 06:04:47;;;;;;;0.95;0.85;;;;;;;;;;5085902;28;20051;-74
2023/04/18 06:07:20;;;;;;;6.47;1.10;;;;;;;;;;5083591;28;20075;-75
2023/04/18 06:09:50;;;;;;;1.30;0.63;;;;;;;;;;5083716;28;20052;-74
2023/04/18 06:12:20;;;;;;;3.08;0.90;;;;;;;;;;5085419;28;20047;-75
2023/04/18 06:14:51;;;;;;;4.00;0.93;;;;;;;;;;5085097;28;20186;-75
2023/04/18 06:17:22;;;;;;;4.03;1.00;;;;;;;;;;5085724;28;20056;-74
2023/04/18 06:19:53;;;;;;;4.93;0.85;;;;;;;;;;5085102;28;20054;-75
2023/04/18 06:22:25;;;;;;;5.55;1.23;;;;;;;;;;5085216;28;20044;-75
2023/04/18 06:24:55;;;;;;;1.23;1.05;;;;;;;;;;5084960;28;20055;-74
2023/04/18 06:27:27;;;;;;;3.25;0.98;;;;;;;;;;5085635;28;20043;-75
2023/04/18 06:29:59;;;;;;;4.40;1.00;;;;;;;;;;5084860;28;20059;-74
2023/04/18 06:32:30;;;;;;;5.60;0.88;;;;;;;;;;5083738;28;20044;-74
2023/04/18 06:35:00;;;;;;;3.95;0.98;;;;;;;;;;5085005;28;20399;-74
2023/04/18 06:37:30;;;;;;;2.42;1.00;;;;;;;;;;5084947;28;20032;-75
2023/04/18 06:40:00;;;;;;;4.13;1.23;;;;;;;;;;5085142;28;20410;-74
2023/04/18 06:42:31;;;;;;;2.92;0.82;;;;;;;;;;5085439;28;20486;-74
2023/04/18 06:45:02;;;;;;;1.40;0.80;;;;;;;;;;5085213;28;20055;-74
2023/04/18 06:47:32;;;;;;;1.92;0.90;;;;;;;;;;5084645;28;20048;-75
2023/04/18 06:50:04;;;;;;;1.50;1.05;;;;;;;;;;5083625;28;20056;-76
2023/04/18 06:52:39;;;;;;;3.30;0.80;;;;;;;;;;5085011;28;20048;-75
2023/04/18 06:55:11;;;;;;;1.58;0.75;;;;;;;;;;5087412;28;20050;-74
2023/04/18 06:57:42;;;;;;;4.45;0.88;;;;;;;;;;5089490;28;20047;-74
2023/04/18 07:00:12;;;;;;;2.15;0.68;;;;;;;;;;5088862;28;20074;-75
2023/04/18 07:02:43;;;;;;;2.55;0.90;;;;;;;;;;5088834;28;20512;-75
2023/04/18 07:05:15;;;;;;;3.25;0.70;;;;;;;;;;5089338;28;20063;-75
2023/04/18 07:07:45;;;;;;;3.72;0.77;;;;;;;;;;5087019;28;20064;-74
2023/04/18 07:10:14;;;;;;;;;;;;;;;;;;5089383;28;20063;-74
2023/04/18 07:12:46;;;;;;;1.52;0.60;;;;;;;;;;5088725;28;19924;-74
2023/04/18 07:15:17;;;;;;;6.22;0.93;;;;;;;;;;5089137;28;20052;-74
2023/04/18 07:17:47;;;;;;;2.60;0.70;;;;;;;;;;5088904;28;20415;-74
2023/04/18 07:20:18;;;;;;;5.55;0.80;;;;;;;;;;5089104;28;20459;-75
2023/04/18 07:22:47;;;;;;;;;;;;;;;;;;5087604;28;20055;-74
2023/04/18 07:25:19;;;;;;;9.07;1.13;;;;;;;;;;5088538;28;19924;-74
2023/04/18 07:27:49;;;;;;;10.52;1.05;;;;;;;;;;5088858;28;20410;-75
2023/04/18 07:30:19;;;;;;;3.10;1.00;;;;;;;;;;5088731;28;20461;-74
2023/04/18 07:32:50;;;;;;;9.15;1.40;;;;;;;;;;5089056;28;20126;-75
2023/04/18 07:35:21;;;;;;;4.68;1.10;;;;;;;;;;5088492;28;20052;-74
2023/04/18 07:37:53;;;;;;;14.32;1.40;;;;;;;;;;5088137;28;20047;-74
2023/04/18 07:40:23;;;;;;;37.60;2.72;;;;;;;;;;5088698;28;20094;-74
2023/04/18 07:42:53;;;;;;;3.65;1.38;;;;;;;;;;5088411;28;20051;-73
2023/04/18 07:45:24;;;;;;;19.08;3.08;;;;;;;;;;5088571;28;20051;-74
2023/04/18 07:47:55;;;;;;;24.20;2.47;;;;;;;;;;5088191;28;20510;-75
2023/04/18 07:50:25;;;;;;;8.05;1.77;;;;;;;;;;5087760;28;20052;-74
2023/04/18 07:52:56;;;;;;;14.38;2.75;;;;;;;;;;5086719;28;20059;-75
2023/04/18 07:55:27;;;;;;;78.13;7.10;;;;;;;;;;5086809;28;20059;-75
2023/04/18 07:57:57;;;;;;;85.90;6.93;;;;;;;;;;5087730;28;20518;-74
2023/04/18 08:00:31;;;;;;;22.00;2.70;;;;;;;;;;5087801;28;20048;-74
2023/04/18 08:03:01;;;;;;;49.00;3.03;;;;;;;;;;5088069;28;20046;-74
2023/04/18 08:05:31;;;;;;;24.67;3.90;;;;;;;;;;5087877;28;20044;-75
2023/04/18 08:08:02;;;;;;;18.92;1.98;;;;;;;;;;5086310;28;20051;-73
2023/04/18 08:10:33;;;;;;;42.05;2.40;;;;;;;;;;5086838;28;20525;-74
2023/04/18 08:13:04;;;;;;;10.70;1.70;;;;;;;;;;5087722;28;20052;-75
2023/04/18 08:15:36;;;;;;;31.77;2.40;;;;;;;;;;5087612;28;20040;-73
2023/04/18 08:18:06;;;;;;;;;;;;;;;;;;5088039;28;20044;-74
2023/04/18 08:20:37;;;;;;;20.25;2.05;;;;;;;;;;5087819;28;20652;-73
2023/04/18 08:23:07;;;;;;;20.63;1.58;;;;;;;;;;5087494;28;20663;-74
2023/04/18 08:25:41;;;;;;;27.80;1.58;;;;;;;;;;5087014;28;20052;-74
2023/04/18 08:28:12;;;;;;;;;;;;;;;;;;5086526;28;20043;-74
2023/04/18 08:30:47;;;;;;;17.45;1.58;;;;;;;;;;5087392;28;19924;-74
2023/04/18 08:33:18;;;;;;;13.73;1.90;;;;;;;;;;5087242;28;20044;-75
2023/04/18 08:35:49;;;;;;;16.23;2.35;;;;;;;;;;5087775;28;20071;-74
2023/04/18 08:38:19;;;;;;;46.00;3.90;;;;;;;;;;5086928;28;20044;-74
2023/04/18 08:40:50;;;;;;;22.17;2.25;;;;;;;;;;5087628;28;20062;-75
2023/04/18 08:43:23;;;;;;;40.78;2.92;;;;;;;;;;5086836;28;20573;-74
2023/04/18 08:45:58;;;;;;;10.60;2.40;;;;;;;;;;5087049;28;20055;-75
2023/04/18 08:48:29;;;;;;;22.58;2.30;;;;;;;;;;5087138;28;20040;-73
2023/04/18 08:51:00;;;;;;;11.43;2.53;;;;;;;;;;5087159;28;20048;-74
2023/04/18 08:53:34;;;;;;;25.58;6.25;;;;;;;;;;5087844;28;20044;-75
2023/04/18 08:56:04;;;;;;;34.78;2.10;;;;;;;;;;5085939;28;20040;-73
2023/04/18 08:58:34;;;;;;;20.48;2.00;;;;;;;;;;5086952;28;20051;-74
2023/04/18 09:01:06;;;;;;;19.30;2.05;;;;;;;;;;5085136;28;20662;-75
2023/04/18 09:03:41;;;;;;;34.60;3.25;;;;;;;;;;5085254;28;20063;-74
2023/04/18 09:06:17;;;;;;;21.52;2.33;;;;;;;;;;5086964;28;20507;-75
2023/04/18 09:08:57;;;;;;;23.23;1.98;;;;;;;;;;5086749;28;20048;-74
2023/04/18 09:11:30;;;;;;;10.25;2.15;;;;;;;;;;5086605;28;20051;-75
2023/04/18 09:14:01;;;;;;;23.70;2.47;;;;;;;;;;5086437;28;20047;-76
2023/04/18 09:16:45;;;;;;;12.82;1.80;;;;;;;;;;5085778;28;20400;-74
2023/04/18 09:19:20;;;;;;;17.23;1.83;;;;;;;;;;5084330;28;20052;-74
2023/04/18 09:22:01;;;;;;;36.47;2.97;;;;;;;;;;5086479;28;20418;-74
2023/04/18 09:24:33;;;;;;;;;;;;;;;;;;5087056;28;20055;-75
2023/04/18 09:27:10;;;;;;;30.75;2.75;;;;;;;;;;5086463;28;19923;-75
2023/04/18 09:29:49;;;;;;;22.60;1.92;;;;;;;;;;5086214;28;20043;-75
2023/04/18 09:32:29;;;;;;;61.42;2.97;;;;;;;;;;5084388;28;20059;-75
2023/04/18 09:35:03;;;;;;;22.88;2.42;;;;;;;;;;5085974;28;20048;-73
2023/04/18 09:37:34;;;;;;;43.53;4.95;;;;;;;;;;5086281;28;20522;-74
2023/04/18 09:40:19;;;;;;;27.85;2.45;;;;;;;;;;5085895;28;20044;-73
2023/04/18 09:42:53;;;;;;;22.67;2.20;;;;;;;;;;5085731;28;20043;-75
2023/04/18 09:45:26;;;;;;;14.88;2.47;;;;;;;;;;5085908;28;20057;-75
2023/04/18 09:47:56;;;;;;;13.73;2.38;;;;;;;;;;5085880;28;20043;-80
2023/04/18 09:50:27;;;;;;;9.90;1.83;;;;;;;;;;5085404;28;20044;-73
2023/04/18 09:53:04;;;;;;;12.20;2.42;;;;;;;;;;5083697;28;20063;-75
2023/04/18 09:55:37;;;;;;;14.13;2.35;;;;;;;;;;5086429;28;20059;-75
2023/04/18 09:58:08;;;;;;;16.48;2.97;;;;;;;;;;5085839;28;20044;-77
2023/04/18 10:00:39;;;;;;;16.58;4.00;;;;;;;;;;5086199;28;20048;-81
2023/04/18 10:03:15;;;;;;;13.20;2.95;;;;;;;;;;5085685;28;20040;-74
2023/04/18 10:05:47;;;;;;;12.02;2.88;;;;;;;;;;5085094;28;20052;-75
2023/04/18 10:08:18;;;;;;;4.75;2.45;;;;;;;;;;5084047;28;20048;-74
2023/04/18 10:10:48;;;;;;;3.33;2.55;;;;;;;;;;5085711;28;20063;-74
2023/04/18 10:13:18;;;;;;;17.88;3.72;;;;;;;;;;5086008;28;20826;-76
2023/04/18 10:15:51;;;;;;;12.40;3.60;;;;;;;;;;5084125;28;20052;-73
2023/04/18 10:18:24;;;;;;;19.30;4.60;;;;;;;;;;5085438;28;20058;-76
2023/04/18 10:21:04;;;;;;;22.20;3.22;;;;;;;;;;5084132;28;20140;-74
2023/04/18 10:23:38;;;;;;;17.23;3.88;;;;;;;;;;5084939;28;20058;-74
2023/04/18 10:26:11;;;;;;;12.68;4.80;;;;;;;;;;5085482;28;20392;-76
2023/04/18 10:28:55;;;;;;;13.85;5.03;;;;;;;;;;5084174;28;20043;-74
2023/04/18 10:31:26;;;;;;;14.93;3.63;;;;;;;;;;5085529;28;20056;-74
2023/04/18 10:33:59;;;;;;;73.10;6.05;;;;;;;;;;5084079;28;20043;-74
2023/04/18 10:37:05;;;;;;;18.38;3.80;;;;;;;;;;5085573;28;20051;-75
2023/04/18 10:39:59;;;;;;;60.97;4.18;;;;;;;;;;5084824;28;20519;-74
2023/04/18 10:42:45;;;;;;;73.45;8.20;;;;;;;;;;5084665;28;20412;-76
2023/04/18 10:45:18;;;;;;;68.75;6.35;;;;;;;;;;5083878;28;20422;-74
2023/04/18 10:47:48;;;;;;;26.42;3.80;;;;;;;;;;5084753;28;20053;-74
2023/04/18 10:50:20;;;;;;;43.33;4.70;;;;;;;;;;5085229;28;20052;-74
2023/04/18 10:52:50;;;;;;;48.70;5.13;;;;;;;;;;5084939;28;20043;-74
2023/04/18 10:55:28;;;;;;;43.05;6.32;;;;;;;;;;5085193;28;20035;-76
2023/04/18 10:57:59;;;;;;;17.75;4.68;;;;;;;;;;5083176;28;20048;-79
2023/04/18 11:00:31;;;;;;;77.07;5.82;;;;;;;;;;5085186;28;20043;-76
2023/04/18 11:03:01;;;;;;;42.78;5.13;;;;;;;;;;5084552;28;20052;-74
2023/04/18 11:05:32;;;;;;;37.28;5.68;;;;;;;;;;5084791;28;20074;-74
2023/04/18 11:08:04;;;;;;;60.72;7.00;;;;;;;;;;5085337;28;20854;-74
2023/04/18 11:10:36;;;;;;;36.58;4.78;;;;;;;;;;5084498;28;20418;-76
2023/04/18 11:13:06;;;;;;;67.10;6.70;;;;;;;;;;5083823;28;20059;-73
2023/04/18 11:15:38;;;;;;;36.78;5.78;;;;;;;;;;5084882;28;20047;-74
2023/04/18 11:18:09;;;;;;;17.25;4.88;;;;;;;;;;5084377;28;20529;-74
2023/04/18 11:20:50;;;;;;;22.98;5.30;;;;;;;;;;5085378;28;20494;-75
2023/04/18 11:23:24;;;;;;;21.88;5.47;;;;;;;;;;5084525;28;20040;-74
2023/04/18 11:25:55;;;;;;;;;;;;;;;;;;5085359;28;20055;-74
2023/04/18 11:28:27;;;;;;;34.15;5.63;;;;;;;;;;5084575;28;19924;-75
2023/04/18 11:30:59;;;;;;;22.75;6.30;;;;;;;;;;5082771;28;20056;-78
2023/04/18 11:33:30;;;;;;;20.58;6.55;;;;;;;;;;5084460;28;20048;-79
2023/04/18 11:36:04;;;;;;;19.23;7.43;;;;;;;;;;5084394;28;20040;-75
2023/04/18 11:38:36;;;;;;;24.35;7.55;;;;;;;;;;5084061;28;20044;-74
2023/04/18 11:41:16;;;;;;;13.25;7.55;;;;;;;;;;5086609;28;20070;-75
2023/04/18 11:43:46;;;;;;;17.95;8.13;;;;;;;;;;5088487;28;20537;-75
2023/04/18 11:46:16;;;;;;;20.95;9.93;;;;;;;;;;5088607;28;20075;-74
2023/04/18 11:48:49;;;;;;;17.73;8.70;;;;;;;;;;5088518;28;20055;-76
2023/04/18 11:51:37;;;;;;;21.08;7.80;;;;;;;;;;5087331;28;20545;-74
2023/04/18 11:54:26;;;;;;;;;;;;;;;;;;5088485;28;20478;-75
2023/04/18 11:56:57;;;;;;;19.25;9.15;;;;;;;;;;5088022;28;19943;-76
2023/04/18 11:59:27;;;;;;;20.20;9.00;;;;;;;;;;5086324;28;20534;-76
2023/04/18 12:02:01;;;;;;;18.20;11.00;;;;;;;;;;5087789;28;20050;-75
2023/04/18 12:05:00;;;;;;;21.17;9.75;;;;;;;;;;5086341;28;20059;-79
2023/04/18 12:07:35;;;;;;;20.33;11.13;;;;;;;;;;5087785;28;20043;-74
2023/04/18 12:10:19;;;;;;;20.98;10.50;;;;;;;;;;5088160;28;20059;-74
2023/04/18 12:12:51;;;;;;;19.92;10.38;;;;;;;;;;5088324;28;20062;-77
2023/04/18 12:15:24;;;;;;;24.48;10.93;;;;;;;;;;5087774;28;20052;-76
2023/04/18 12:17:59;;;;;;;21.10;11.60;;;;;;;;;;5087710;28;20435;-74
2023/04/18 12:20:53;;;;;;;18.95;10.77;;;;;;;;;;5086094;28;20074;-75
2023/04/18 12:23:38;;;;;;;22.10;11.55;;;;;;;;;;5087294;28;20050;-75
2023/04/18 12:26:17;;;;;;;20.70;11.30;;;;;;;;;;5087702;28;20051;-73
2023/04/18 12:28:51;;;;;;;22.45;12.40;;;;;;;;;;5087771;28;20040;-75
2023/04/18 12:31:22;;;;;;;32.53;15.75;;;;;;;;;;5087932;28;20052;-76
2023/04/18 12:33:53;;;;;;;36.85;16.88;;;;;;;;;;5086947;28;20047;-75
2023/04/18 12:36:25;;;;;;;30.65;16.17;;;;;;;;;;5087302;28;20051;-76
2023/04/18 12:38:55;;;;;;;28.75;17.00;;;;;;;;;;5087225;28;20051;-74
2023/04/18 12:41:27;;;;;;;29.70;16.80;;;;;;;;;;5087137;28;20071;-75
2023/04/18 12:43:57;;;;;;;38.20;16.95;;;;;;;;;;5086940;28;20044;-76
2023/04/18 12:46:29;;;;;;;31.20;15.85;;;;;;;;;;5087267;28;20044;-77
2023/04/18 12:48:59;;;;;;;24.45;14.05;;;;;;;;;;5086862;28;20527;-76
2023/04/18 12:51:30;;;;;;;27.75;15.40;;;;;;;;;;5086040;28;20507;-75
2023/04/18 12:54:01;;;;;;;22.92;14.25;;;;;;;;;;5086140;28;20044;-76
2023/04/18 12:56:31;;;;;;;28.45;14.32;;;;;;;;;;5086932;28;20043;-74
2023/04/18 12:59:02;;;;;;;27.48;14.43;;;;;;;;;;5087058;28;20040;-77
2023/04/18 13:01:32;;;;;;;22.40;14.00;;;;;;;;;;5086528;28;20051;-76
2023/04/18 13:04:03;;;;;;;25.98;14.77;;;;;;;;;;5087006;28;20524;-75
2023/04/18 13:06:41;;;;;;;30.25;14.75;;;;;;;;;;5084132;28;20063;-75
2023/04/18 13:09:11;;;;;;;24.15;14.25;;;;;;;;;;5086680;28;20050;-75
2023/04/18 13:11:41;;;;;;;23.55;13.15;;;;;;;;;;5086842;28;20059;-76
2023/04/18 13:14:13;;;;;;;27.70;13.90;;;;;;;;;;5086706;28;20040;-75
2023/04/18 13:16:46;;;;;;;23.95;13.45;;;;;;;;;;5086643;28;20051;-75
2023/04/18 13:19:18;;;;;;;23.00;12.45;;;;;;;;;;5086528;28;20044;-76
2023/04/18 13:21:49;;;;;;;25.95;12.10;;;;;;;;;;5086443;28;20056;-76
2023/04/18 13:24:20;;;;;;;20.30;12.82;;;;;;;;;;5086070;28;20047;-77
2023/04/18 13:26:51;;;;;;;19.05;10.95;;;;;;;;;;5086639;28;20048;-75
2023/04/18 13:29:22;;;;;;;23.42;11.75;;;;;;;;;;5087783;28;20066;-75
2023/04/18 13:31:52;;;;;;;16.98;11.35;;;;;;;;;;5086791;28;20525;-77
2023/04/18 13:34:22;;;;;;;21.40;12.90;;;;;;;;;;5086347;28;20048;-76
2023/04/18 13:36:53;;;;;;;15.95;9.20;;;;;;;;;;5086363;28;20054;-74
2023/04/18 13:39:26;;;;;;;13.65;7.93;;;;;;;;;;5086354;28;20051;-75
2023/04/18 13:42:03;;;;;;;14.35;7.70;;;;;;;;;;5084861;28;20443;-75
2023/04/18 13:44:37;;;;;;;16.55;9.02;;;;;;;;;;5086497;28;20570;-75
2023/04/18 13:47:08;;;;;;;10.30;6.90;;;;;;;;;;5086188;28;20059;-75
2023/04/18 13:49:40;;;;;;;11.93;6.93;;;;;;;;;;5087140;28;20058;-75
2023/04/18 13:52:11;;;;;;;6.85;5.05;;;;;;;;;;5086076;28;20406;-76
2023/04/18 13:54:41;;;;;;;8.48;4.57;;;;;;;;;;5085976;28;20043;-75
2023/04/18 13:57:13;;;;;;;10.77;5.40;;;;;;;;;;5083368;28;20419;-75
2023/04/18 13:59:45;;;;;;;17.38;7.47;;;;;;;;;;5084773;28;20426;-80
2023/04/18 14:02:16;;;;;;;10.65;5.78;;;;;;;;;;5085436;28;20044;-75
2023/04/18 14:04:47;;;;;;;14.57;6.05;;;;;;;;;;5085316;28;20510;-76
2023/04/18 14:07:17;;;;;;;10.25;6.72;;;;;;;;;;5084989;28;20052;-76
2023/04/18 14:09:49;;;;;;;9.43;5.28;;;;;;;;;;5066928;28;20066;-75
2023/04/18 14:12:21;;;;;;;14.45;5.90;;;;;;;;;;5085615;28;20040;-76
2023/04/18 14:14:51;;;;;;;9.55;4.90;;;;;;;;;;5083081;28;20051;-74
2023/04/18 14:17:22;;;;;;;12.15;6.28;;;;;;;;;;5085344;28;20051;-75
2023/04/18 14:19:54;;;;;;;10.57;5.10;;;;;;;;;;5084967;28;20051;-77
2023/04/18 14:22:24;;;;;;;7.57;4.35;;;;;;;;;;5085565;28;20058;-76
2023/04/18 14:24:55;;;;;;;10.00;4.65;;;;;;;;;;5085667;28;20058;-76
2023/04/18 14:27:26;;;;;;;7.45;4.70;;;;;;;;;;5085028;28;20047;-75
2023/04/18 14:29:58;;;;;;;11.20;9.88;;;;;;;;;;5084976;28;20043;-76
2023/04/18 14:32:29;;;;;;;7.63;3.57;;;;;;;;;;5085767;28;20032;-76
2023/04/18 14:35:04;;;;;;;7.88;2.55;;;;;;;;;;5085642;28;20048;-76
2023/04/18 14:37:35;;;;;;;5.40;2.95;;;;;;;;;;5085200;28;20048;-78
2023/04/18 14:40:07;;;;;;;4.95;2.90;;;;;;;;;;5085621;28;20052;-77
2023/04/18 14:42:37;;;;;;;6.75;3.33;;;;;;;;;;5085002;28;20052;-76
2023/04/18 14:45:10;;;;;;;7.78;3.35;;;;;;;;;;5085023;28;20056;-79
2023/04/18 14:47:41;;;;;;;5.75;2.92;;;;;;;;;;5084738;28;20067;-75
2023/04/18 14:50:12;;;;;;;6.93;2.90;;;;;;;;;;5085557;28;20051;-79
2023/04/18 14:52:43;;;;;;;4.78;3.20;;;;;;;;;;5084912;28;20040;-79
2023/04/18 14:55:13;;;;;;;7.13;2.20;;;;;;;;;;5085863;28;20036;-76
2023/04/18 14:57:44;;;;;;;5.65;2.17;;;;;;;;;;5085064;28;20071;-76
2023/04/18 15:00:15;;;;;;;5.80;2.10;;;;;;;;;;5085148;28;20059;-77
2023/04/18 15:02:45;;;;;;;4.43;2.15;;;;;;;;;;5084791;28;20044;-76
2023/04/18 15:05:17;;;;;;;4.95;2.60;;;;;;;;;;5084344;28;20070;-76
2023/04/18 15:07:51;;;;;;;4.60;2.38;;;;;;;;;;5084841;28;20040;-76
2023/04/18 15:10:21;;;;;;;13.75;2.05;;;;;;;;;;5085071;28;20068;-76